Disclaimer

Please do not use the information listed here in-flight or in-navigation, as they are not provided to us by the airports but are provided by volunteers, so they might be outdated.

Search


Regions


Airport information page

Radio informations:
Tower (TWR) - 118.6 MHz
Ground (GND) - 124.3 MHz
Clearance delivery - 121.65 MHz
Automatic Terminal Information Service (ATIS) - 128.6 MHz
ARR - 119.3 MHz
Approach/Departure (APP/DEP) - 120.3 MHz

Airport informations:
Latitude: 01° 21' 00.68" N
Longitude: 103° 59' 39.96" E
Elevation: 22 feet - 7 meters
Operating hours: 24 hour operations
Operating agency: Military-civil joint use airport
Timezone: UTC+8
Fuel: Jet A1, without icing nhibitor.

Runway information:
02C/20C - 13123 x 197 feet< - >4000 x 60 meters
02R/20L - 9015 x 195 feet< - >2748 x 59 meters
02L/20R - 13123 x 197 feet< - >4000 x 60 meters

Recent METARs:
WSSS 201700Z VRB01KT 9999 FEW018 SCT150 BKN300 27/25 Q1011 NOSIG
WSSS 201730Z VRB01KT 9999 FEW018 SCT150 BKN300 27/25 Q1011 NOSIG
WSSS 201800Z VRB02KT 9999 FEW018 BKN300 27/25 Q1011 NOSIG

Airport on the map: